Time;durP1;ratioP1;P1;durP2;ratioP2;P2;SDS_P1;SDS_P2;PMS_P1;PMS_P2;Temp;Humidity;BMP_temperature;BMP_pressure;BME280_temperature;BME280_humidity;BME280_pressure;Samples;Min_cycle;Max_cycle;Signal;HPM_P1;HPM_P2
2022/04/11 00:01:13;;;;;;;16.87;8.73;;;;;;;;;;5107484;28;21122;-67
2022/04/11 00:03:39;;;;;;;18.17;8.67;;;;;;;;;;5077276;28;20361;-67
2022/04/11 00:06:05;;;;;;;18.13;8.27;;;;;;;;;;5096898;28;20040;-67
2022/04/11 00:08:31;;;;;;;13.60;7.73;;;;;;;;;;5097939;28;20282;-67
2022/04/11 00:10:57;;;;;;;17.07;8.13;;;;;;;;;;5095464;28;20492;-67
2022/04/11 00:13:23;;;;;;;16.47;7.80;;;;;;;;;;5107107;28;20434;-67
2022/04/11 00:15:49;;;;;;;14.13;6.80;;;;;;;;;;5095136;28;20100;-68
2022/04/11 00:18:15;;;;;;;14.47;7.50;;;;;;;;;;5089137;28;20297;-67
2022/04/11 00:20:41;;;;;;;14.50;7.17;;;;;;;;;;5107765;28;20290;-67
2022/04/11 00:23:07;;;;;;;14.10;10.20;;;;;;;;;;5105919;28;20554;-67
2022/04/11 00:25:34;;;;;;;21.57;9.50;;;;;;;;;;5096875;28;20302;-67
2022/04/11 00:28:00;;;;;;;15.07;7.73;;;;;;;;;;5089241;28;20301;-67
2022/04/11 00:30:26;;;;;;;20.87;9.63;;;;;;;;;;5095122;28;20401;-67
2022/04/11 00:32:52;;;;;;;14.97;8.03;;;;;;;;;;5088611;28;20510;-68
2022/04/11 00:35:18;;;;;;;14.20;6.23;;;;;;;;;;5096366;28;20051;-68
2022/04/11 00:37:44;;;;;;;15.50;8.63;;;;;;;;;;5090308;28;20382;-67
2022/04/11 00:40:11;;;;;;;17.57;8.43;;;;;;;;;;5100418;28;20742;-67
2022/04/11 00:42:37;;;;;;;13.03;8.07;;;;;;;;;;5100605;28;20300;-67
2022/04/11 00:45:04;;;;;;;19.97;10.73;;;;;;;;;;5095005;28;20369;-67
2022/04/11 00:47:30;;;;;;;18.47;11.10;;;;;;;;;;5091948;28;20298;-68
2022/04/11 00:49:59;;;;;;;17.20;9.87;;;;;;;;;;5095180;28;20290;-67
2022/04/11 00:52:25;;;;;;;16.80;9.37;;;;;;;;;;5078859;28;20390;-67
2022/04/11 00:54:51;;;;;;;15.30;8.97;;;;;;;;;;5077661;28;20321;-67
2022/04/11 00:57:17;;;;;;;11.60;7.93;;;;;;;;;;5088284;28;20290;-67
2022/04/11 00:59:44;;;;;;;12.30;7.63;;;;;;;;;;5088333;28;20040;-67
2022/04/11 01:02:10;;;;;;;14.97;8.03;;;;;;;;;;5088413;28;20806;-67
2022/04/11 01:04:36;;;;;;;18.50;9.70;;;;;;;;;;5088613;28;20290;-67
2022/04/11 01:07:02;;;;;;;19.30;10.20;;;;;;;;;;5098850;28;20300;-67
2022/04/11 01:09:28;;;;;;;26.83;11.63;;;;;;;;;;5090525;28;20051;-67
2022/04/11 01:11:54;;;;;;;14.10;8.77;;;;;;;;;;5095045;28;20290;-67
2022/04/11 01:14:20;;;;;;;17.30;9.00;;;;;;;;;;5091509;28;20081;-67
2022/04/11 01:16:50;;;;;;;15.20;8.93;;;;;;;;;;5089825;28;20317;-67
2022/04/11 01:19:16;;;;;;;16.40;8.20;;;;;;;;;;5094347;28;20294;-67
2022/04/11 01:21:42;;;;;;;15.17;7.77;;;;;;;;;;5089330;28;20283;-67
2022/04/11 01:24:08;;;;;;;17.90;8.00;;;;;;;;;;5105784;28;20298;-66
2022/04/11 01:26:36;;;;;;;17.23;7.17;;;;;;;;;;5107486;28;20285;-66
2022/04/11 01:29:04;;;;;;;14.17;7.50;;;;;;;;;;5099598;28;21311;-67
2022/04/11 01:31:30;;;;;;;13.83;7.03;;;;;;;;;;5095449;28;20293;-67
2022/04/11 01:33:56;;;;;;;15.77;8.77;;;;;;;;;;5098725;28;21153;-67
2022/04/11 01:36:22;;;;;;;14.80;7.27;;;;;;;;;;5094172;28;20412;-67
2022/04/11 01:38:48;;;;;;;15.93;8.00;;;;;;;;;;5090250;28;20105;-67
2022/04/11 01:41:14;;;;;;;12.43;8.03;;;;;;;;;;5106628;28;20562;-67
2022/04/11 01:43:39;;;;;;;17.20;8.63;;;;;;;;;;5099915;28;20036;-66
2022/04/11 01:46:05;;;;;;;15.33;8.57;;;;;;;;;;5095345;28;20656;-67
2022/04/11 01:48:31;;;;;;;16.90;8.43;;;;;;;;;;5106975;28;20169;-67
2022/04/11 01:50:57;;;;;;;13.90;8.03;;;;;;;;;;5101667;28;20524;-67
2022/04/11 01:53:23;;;;;;;17.73;8.90;;;;;;;;;;5089491;28;20040;-67
2022/04/11 01:55:49;;;;;;;19.50;11.10;;;;;;;;;;5099771;28;20180;-67
2022/04/11 01:58:16;;;;;;;22.37;12.87;;;;;;;;;;5092228;28;20036;-67
2022/04/11 02:00:42;;;;;;;19.77;10.87;;;;;;;;;;5095538;28;20309;-67
2022/04/11 02:03:09;;;;;;;19.63;10.60;;;;;;;;;;5083598;28;20290;-67
2022/04/11 02:05:35;;;;;;;18.87;9.27;;;;;;;;;;5100097;28;20668;-67
2022/04/11 02:08:03;;;;;;;16.40;8.70;;;;;;;;;;5108841;28;20328;-67
2022/04/11 02:10:29;;;;;;;18.43;9.63;;;;;;;;;;5104544;28;20647;-67
2022/04/11 02:12:56;;;;;;;20.23;8.80;;;;;;;;;;5099387;28;20301;-67
2022/04/11 02:15:22;;;;;;;20.93;10.07;;;;;;;;;;5098447;28;20321;-67
2022/04/11 02:17:50;;;;;;;17.37;9.07;;;;;;;;;;5101022;28;20298;-67
2022/04/11 02:20:16;;;;;;;18.77;8.67;;;;;;;;;;5100631;28;20286;-67
2022/04/11 02:22:43;;;;;;;21.73;9.10;;;;;;;;;;5099180;28;20400;-68
2022/04/11 02:25:09;;;;;;;16.30;8.73;;;;;;;;;;5099843;28;20790;-67
2022/04/11 02:27:35;;;;;;;21.23;10.53;;;;;;;;;;5099747;28;20300;-67
2022/04/11 02:30:01;;;;;;;20.60;10.80;;;;;;;;;;5098511;28;20043;-68
2022/04/11 02:32:27;;;;;;;20.07;11.37;;;;;;;;;;5098903;28;20123;-68
2022/04/11 02:34:53;;;;;;;20.03;11.37;;;;;;;;;;5101349;28;20040;-67
2022/04/11 02:37:19;;;;;;;16.43;9.83;;;;;;;;;;5097237;28;20051;-67
2022/04/11 02:39:45;;;;;;;17.73;10.07;;;;;;;;;;5098318;28;20058;-67
2022/04/11 02:42:11;;;;;;;24.13;11.07;;;;;;;;;;5097460;28;20382;-67
2022/04/11 02:44:37;;;;;;;14.67;7.70;;;;;;;;;;5099873;28;20043;-67
2022/04/11 02:47:03;;;;;;;21.87;10.77;;;;;;;;;;5098125;28;20036;-67
2022/04/11 02:49:29;;;;;;;18.87;9.63;;;;;;;;;;5099498;28;20142;-66
2022/04/11 02:51:55;;;;;;;19.60;10.13;;;;;;;;;;5100619;28;20870;-67
2022/04/11 02:54:21;;;;;;;19.00;9.53;;;;;;;;;;5099165;28;20036;-67
2022/04/11 02:56:47;;;;;;;17.17;9.80;;;;;;;;;;5097467;28;20055;-67
2022/04/11 02:59:13;;;;;;;23.60;9.87;;;;;;;;;;5098465;28;20190;-67
2022/04/11 03:01:39;;;;;;;23.97;11.33;;;;;;;;;;5100876;28;20153;-67
2022/04/11 03:04:06;;;;;;;20.17;10.73;;;;;;;;;;5110956;28;20040;-67
2022/04/11 03:06:32;;;;;;;24.03;11.00;;;;;;;;;;5094549;28;20387;-66
2022/04/11 03:08:58;;;;;;;22.73;10.77;;;;;;;;;;5091754;28;20419;-66
2022/04/11 03:11:24;;;;;;;25.17;12.87;;;;;;;;;;5096719;28;20044;-67
2022/04/11 03:13:50;;;;;;;22.03;11.07;;;;;;;;;;5097748;28;20048;-67
2022/04/11 03:16:16;;;;;;;24.63;11.33;;;;;;;;;;5106345;28;20278;-66
2022/04/11 03:18:42;;;;;;;23.63;11.73;;;;;;;;;;5098984;28;20047;-67
2022/04/11 03:21:08;;;;;;;21.67;11.40;;;;;;;;;;5097513;28;20406;-67
2022/04/11 03:23:34;;;;;;;22.80;9.97;;;;;;;;;;5108010;28;20090;-67
2022/04/11 03:26:00;;;;;;;18.90;10.90;;;;;;;;;;5103499;28;20835;-67
2022/04/11 03:28:26;;;;;;;26.97;12.93;;;;;;;;;;5099073;28;20048;-67
2022/04/11 03:30:52;;;;;;;20.87;10.87;;;;;;;;;;5105706;28;20405;-67
2022/04/11 03:33:18;;;;;;;26.40;12.37;;;;;;;;;;5106811;28;20289;-67
2022/04/11 03:35:45;;;;;;;20.00;9.73;;;;;;;;;;5099240;28;20787;-67
2022/04/11 03:38:11;;;;;;;18.57;8.97;;;;;;;;;;5095635;28;20305;-67
2022/04/11 03:40:37;;;;;;;15.70;7.90;;;;;;;;;;5092233;28;20306;-67
2022/04/11 03:43:04;;;;;;;16.90;8.07;;;;;;;;;;5097043;28;20327;-66
2022/04/11 03:45:30;;;;;;;16.37;9.73;;;;;;;;;;5100555;28;20366;-66
2022/04/11 03:47:56;;;;;;;16.33;8.57;;;;;;;;;;5101190;28;20672;-67
2022/04/11 03:50:22;;;;;;;22.13;8.37;;;;;;;;;;5094619;28;20290;-67
2022/04/11 03:52:48;;;;;;;19.93;10.07;;;;;;;;;;5091340;28;20040;-67
2022/04/11 03:55:14;;;;;;;15.90;9.27;;;;;;;;;;5091772;28;20458;-67
2022/04/11 03:57:39;;;;;;;17.57;10.40;;;;;;;;;;5096631;28;20054;-67
2022/04/11 04:00:06;;;;;;;21.40;11.37;;;;;;;;;;5094037;28;20040;-67
2022/04/11 04:02:32;;;;;;;19.77;11.37;;;;;;;;;;5095107;28;20494;-67
2022/04/11 04:04:58;;;;;;;23.87;11.10;;;;;;;;;;5098212;28;20300;-67
2022/04/11 04:07:24;;;;;;;22.93;10.70;;;;;;;;;;5095729;28;20035;-67
2022/04/11 04:09:50;;;;;;;24.10;11.67;;;;;;;;;;5097941;28;20293;-67
2022/04/11 04:12:22;;;;;;;19.00;10.33;;;;;;;;;;5098290;28;20412;-67
2022/04/11 04:14:49;;;;;;;20.20;10.47;;;;;;;;;;5097670;28;20054;-67
2022/04/11 04:17:15;;;;;;;17.67;9.80;;;;;;;;;;5096747;28;20290;-67
2022/04/11 04:19:41;;;;;;;19.80;12.10;;;;;;;;;;5094644;28;20289;-67
2022/04/11 04:22:07;;;;;;;18.60;10.63;;;;;;;;;;5079157;28;20131;-67
2022/04/11 04:24:36;;;;;;;16.77;9.50;;;;;;;;;;5095562;28;21895;-67
2022/04/11 04:27:02;;;;;;;21.43;12.27;;;;;;;;;;5098828;28;20301;-67
2022/04/11 04:29:28;;;;;;;22.67;11.53;;;;;;;;;;5096423;28;20304;-67
2022/04/11 04:31:54;;;;;;;15.90;8.67;;;;;;;;;;5095437;28;20297;-66
2022/04/11 04:34:21;;;;;;;18.60;10.60;;;;;;;;;;5097432;28;20301;-67
2022/04/11 04:36:47;;;;;;;18.63;10.27;;;;;;;;;;5097259;28;20172;-67
2022/04/11 04:39:13;;;;;;;23.53;10.80;;;;;;;;;;5094531;28;20305;-67
2022/04/11 04:41:39;;;;;;;15.90;8.63;;;;;;;;;;5094968;28;20302;-66
2022/04/11 04:44:09;;;;;;;21.20;9.23;;;;;;;;;;5097894;28;21220;-67
2022/04/11 04:46:35;;;;;;;15.30;9.43;;;;;;;;;;5078704;28;20793;-67
2022/04/11 04:49:02;;;;;;;12.37;8.73;;;;;;;;;;5094593;28;20312;-67
2022/04/11 04:51:28;;;;;;;15.30;9.40;;;;;;;;;;5094760;28;20066;-66
2022/04/11 04:53:54;;;;;;;20.20;10.37;;;;;;;;;;5094807;28;20668;-67
2022/04/11 04:56:20;;;;;;;16.97;8.93;;;;;;;;;;5078004;28;20339;-67
2022/04/11 04:58:46;;;;;;;17.80;10.10;;;;;;;;;;5095162;28;20382;-66
2022/04/11 05:01:13;;;;;;;17.03;9.80;;;;;;;;;;5096074;28;20048;-66
2022/04/11 05:03:39;;;;;;;16.93;10.87;;;;;;;;;;5097611;28;20297;-67
2022/04/11 05:06:05;;;;;;;17.03;9.60;;;;;;;;;;5078041;28;20387;-67
2022/04/11 05:08:32;;;;;;;17.23;9.33;;;;;;;;;;5092402;28;20297;-66
2022/04/11 05:10:58;;;;;;;14.23;8.53;;;;;;;;;;5095928;28;20651;-67
2022/04/11 05:13:24;;;;;;;16.03;9.90;;;;;;;;;;5096251;28;20298;-67
2022/04/11 05:15:50;;;;;;;19.90;9.67;;;;;;;;;;5095409;28;20403;-67
2022/04/11 05:18:16;;;;;;;17.23;9.90;;;;;;;;;;5094804;28;20130;-67
2022/04/11 05:20:42;;;;;;;19.63;10.33;;;;;;;;;;5097954;28;20588;-67
2022/04/11 05:23:08;;;;;;;23.00;10.90;;;;;;;;;;5095997;28;20506;-67
2022/04/11 05:25:34;;;;;;;18.70;9.57;;;;;;;;;;5092075;28;20294;-67
2022/04/11 05:28:00;;;;;;;15.40;9.03;;;;;;;;;;5096142;28;20290;-67
2022/04/11 05:30:26;;;;;;;20.17;8.80;;;;;;;;;;5096116;28;20434;-67
2022/04/11 05:32:52;;;;;;;17.30;8.77;;;;;;;;;;5099698;28;20096;-67
2022/04/11 05:35:18;;;;;;;16.50;9.50;;;;;;;;;;5094270;28;20317;-67
2022/04/11 05:37:44;;;;;;;17.43;10.13;;;;;;;;;;5093992;28;20059;-67
2022/04/11 05:40:12;;;;;;;12.20;8.30;;;;;;;;;;5094993;28;20041;-67
2022/04/11 05:42:38;;;;;;;19.13;9.47;;;;;;;;;;5094957;28;20039;-67
2022/04/11 05:45:05;;;;;;;18.80;9.20;;;;;;;;;;5097106;28;20036;-67
2022/04/11 05:47:31;;;;;;;14.30;8.37;;;;;;;;;;5074986;28;20054;-67
2022/04/11 05:49:57;;;;;;;16.47;7.90;;;;;;;;;;5095024;28;20456;-67
2022/04/11 05:52:23;;;;;;;17.03;7.60;;;;;;;;;;5093419;28;20042;-67
2022/04/11 05:54:49;;;;;;;13.80;8.13;;;;;;;;;;5097017;28;20039;-67
2022/04/11 05:57:15;;;;;;;18.27;8.57;;;;;;;;;;5094914;28;20031;-67
2022/04/11 05:59:41;;;;;;;14.10;8.50;;;;;;;;;;5096391;28;20052;-67
2022/04/11 06:02:10;;;;;;;16.93;8.73;;;;;;;;;;5092604;28;20482;-67
2022/04/11 06:04:37;;;;;;;13.37;8.33;;;;;;;;;;5097044;28;20048;-67
2022/04/11 06:07:03;;;;;;;14.47;8.97;;;;;;;;;;5098329;28;20053;-67
2022/04/11 06:09:29;;;;;;;12.07;7.80;;;;;;;;;;5097505;28;20047;-67
2022/04/11 06:11:55;;;;;;;15.53;8.53;;;;;;;;;;5092850;28;20751;-67
2022/04/11 06:14:21;;;;;;;15.30;8.13;;;;;;;;;;5097052;28;20039;-67
2022/04/11 06:16:47;;;;;;;12.87;8.10;;;;;;;;;;5096703;28;20367;-67
2022/04/11 06:19:13;;;;;;;16.57;7.13;;;;;;;;;;5095627;28;20046;-67
2022/04/11 06:21:39;;;;;;;14.53;7.20;;;;;;;;;;5098462;28;20048;-67
2022/04/11 06:24:05;;;;;;;10.80;7.93;;;;;;;;;;5099921;28;20047;-67
2022/04/11 06:26:31;;;;;;;11.17;6.27;;;;;;;;;;5102593;28;20036;-67
2022/04/11 06:28:57;;;;;;;12.23;6.10;;;;;;;;;;5098380;28;20044;-67
2022/04/11 06:31:23;;;;;;;9.87;5.70;;;;;;;;;;5096812;28;20032;-67
2022/04/11 06:33:49;;;;;;;12.17;7.10;;;;;;;;;;5101044;28;20406;-67
2022/04/11 06:36:15;;;;;;;10.70;5.37;;;;;;;;;;5099079;28;20071;-67
2022/04/11 06:38:41;;;;;;;11.30;5.57;;;;;;;;;;5098944;28;20048;-66
2022/04/11 06:41:07;;;;;;;11.33;5.30;;;;;;;;;;5098683;28;20089;-67
2022/04/11 06:43:33;;;;;;;12.33;5.80;;;;;;;;;;5097782;28;20044;-66
2022/04/11 06:45:59;;;;;;;10.10;5.77;;;;;;;;;;5106609;28;20047;-67
2022/04/11 06:48:25;;;;;;;8.80;5.03;;;;;;;;;;5110657;28;20096;-67
2022/04/11 06:50:53;;;;;;;11.00;5.40;;;;;;;;;;5104596;28;20083;-66
2022/04/11 06:53:19;;;;;;;12.17;5.07;;;;;;;;;;5095739;28;20574;-67
2022/04/11 06:55:47;;;;;;;9.93;5.53;;;;;;;;;;5098943;28;20039;-67
2022/04/11 06:58:13;;;;;;;10.47;5.27;;;;;;;;;;5105307;28;20047;-66
2022/04/11 07:00:39;;;;;;;11.83;5.20;;;;;;;;;;5098704;28;20051;-67
2022/04/11 07:03:05;;;;;;;8.53;4.50;;;;;;;;;;5090906;28;20381;-67
2022/04/11 07:05:31;;;;;;;10.03;5.10;;;;;;;;;;5103462;28;20122;-66
2022/04/11 07:07:57;;;;;;;7.80;4.73;;;;;;;;;;5091309;28;20083;-67
2022/04/11 07:10:24;;;;;;;11.40;4.63;;;;;;;;;;5098372;28;20048;-66
2022/04/11 07:12:50;;;;;;;8.63;4.50;;;;;;;;;;5095650;28;20047;-66
2022/04/11 07:15:16;;;;;;;9.00;4.60;;;;;;;;;;5083827;28;20096;-67
2022/04/11 07:17:42;;;;;;;7.17;4.20;;;;;;;;;;5097116;28;20509;-67
2022/04/11 07:20:09;;;;;;;10.63;4.10;;;;;;;;;;5100930;28;20413;-68
2022/04/11 07:22:35;;;;;;;11.73;4.40;;;;;;;;;;5109640;28;20114;-68
2022/04/11 07:25:02;;;;;;;8.63;4.20;;;;;;;;;;5110867;28;20093;-67
2022/04/11 07:27:28;;;;;;;6.67;4.07;;;;;;;;;;5102243;28;20414;-67
2022/04/11 07:29:54;;;;;;;10.57;4.63;;;;;;;;;;5099152;28;20043;-67
2022/04/11 07:32:20;;;;;;;7.80;4.67;;;;;;;;;;5098013;28;20047;-67
2022/04/11 07:34:47;;;;;;;6.50;4.40;;;;;;;;;;5098617;28;20040;-67
2022/04/11 07:37:13;;;;;;;6.00;4.33;;;;;;;;;;5097322;28;20159;-68
2022/04/11 07:39:39;;;;;;;9.43;4.20;;;;;;;;;;5098290;28;20577;-67
2022/04/11 07:42:05;;;;;;;11.33;4.47;;;;;;;;;;5097548;28;20070;-67
2022/04/11 07:44:31;;;;;;;9.10;4.03;;;;;;;;;;5099975;28;20126;-66
2022/04/11 07:46:57;;;;;;;12.80;5.43;;;;;;;;;;5099660;28;20123;-67
2022/04/11 07:49:23;;;;;;;6.50;4.27;;;;;;;;;;5098055;28;20051;-67
2022/04/11 07:51:49;;;;;;;9.17;3.97;;;;;;;;;;5110314;28;20533;-66
2022/04/11 07:54:15;;;;;;;9.00;4.23;;;;;;;;;;5109099;28;20039;-66
2022/04/11 07:56:41;;;;;;;7.47;5.00;;;;;;;;;;5109353;28;20576;-67
2022/04/11 07:59:07;;;;;;;8.90;4.80;;;;;;;;;;5095320;28;20036;-68
2022/04/11 08:01:33;;;;;;;8.07;4.03;;;;;;;;;;5100709;28;20040;-68
2022/04/11 08:03:59;;;;;;;7.20;4.20;;;;;;;;;;5094437;28;20040;-67
2022/04/11 08:06:25;;;;;;;10.13;4.40;;;;;;;;;;5099507;28;20036;-65
2022/04/11 08:08:51;;;;;;;11.60;4.60;;;;;;;;;;5097561;28;20142;-68
2022/04/11 08:11:19;;;;;;;7.13;4.30;;;;;;;;;;5081770;28;20047;-67
2022/04/11 08:13:45;;;;;;;6.70;4.13;;;;;;;;;;5088528;28;20402;-67
2022/04/11 08:16:11;;;;;;;8.87;4.57;;;;;;;;;;5088241;28;20113;-68
2022/04/11 08:18:37;;;;;;;10.90;4.33;;;;;;;;;;5095287;28;20044;-67
2022/04/11 08:21:03;;;;;;;8.00;4.23;;;;;;;;;;5099602;28;20095;-69
2022/04/11 08:23:30;;;;;;;7.43;4.23;;;;;;;;;;5097358;28;20131;-68
2022/04/11 08:25:56;;;;;;;13.93;4.93;;;;;;;;;;5100668;28;20085;-67
2022/04/11 08:28:22;;;;;;;8.13;3.97;;;;;;;;;;5099936;28;20456;-67
2022/04/11 08:30:48;;;;;;;10.90;4.90;;;;;;;;;;5097811;28;20083;-67
2022/04/11 08:33:15;;;;;;;10.13;4.53;;;;;;;;;;5076474;28;20040;-67
2022/04/11 08:35:41;;;;;;;6.80;4.63;;;;;;;;;;5089782;28;20070;-67
2022/04/11 08:38:07;;;;;;;10.27;4.37;;;;;;;;;;5071149;28;20112;-67
2022/04/11 08:40:33;;;;;;;6.80;4.33;;;;;;;;;;5088379;28;20039;-67
2022/04/11 08:42:59;;;;;;;6.70;4.47;;;;;;;;;;5088593;28;20046;-67
2022/04/11 08:45:27;;;;;;;9.40;5.23;;;;;;;;;;5106133;28;20043;-68
2022/04/11 08:47:56;;;;;;;9.43;4.67;;;;;;;;;;5109304;28;20524;-67
2022/04/11 08:50:25;;;;;;;6.17;4.13;;;;;;;;;;5105171;28;20047;-67
2022/04/11 08:52:52;;;;;;;8.97;4.30;;;;;;;;;;5099337;28;20126;-67
2022/04/11 08:55:18;;;;;;;9.43;4.40;;;;;;;;;;5096835;28;20516;-67
2022/04/11 08:57:44;;;;;;;9.37;4.67;;;;;;;;;;5065077;28;20119;-68
2022/04/11 09:00:14;;;;;;;9.83;4.93;;;;;;;;;;5106211;28;20515;-67
2022/04/11 09:02:44;;;;;;;8.43;4.67;;;;;;;;;;5109074;28;20083;-67
2022/04/11 09:05:11;;;;;;;7.23;4.60;;;;;;;;;;5109010;28;20051;-67
2022/04/11 09:07:43;;;;;;;7.23;4.33;;;;;;;;;;5109016;28;20046;-67
2022/04/11 09:10:09;;;;;;;8.47;4.40;;;;;;;;;;5108827;28;20485;-67
2022/04/11 09:12:45;;;;;;;7.33;4.57;;;;;;;;;;5107144;28;20054;-62
2022/04/11 09:15:11;;;;;;;10.10;4.30;;;;;;;;;;5088103;28;20059;-62
2022/04/11 09:17:41;;;;;;;7.33;4.53;;;;;;;;;;5088564;28;20044;-61
2022/04/11 09:20:10;;;;;;;9.10;5.03;;;;;;;;;;5088764;28;20095;-62
2022/04/11 09:22:36;;;;;;;7.13;4.37;;;;;;;;;;5088558;28;20048;-61
2022/04/11 09:25:05;;;;;;;9.60;5.20;;;;;;;;;;5088506;28;20583;-62
2022/04/11 09:27:31;;;;;;;7.00;4.97;;;;;;;;;;5106505;28;20501;-62
2022/04/11 09:29:57;;;;;;;7.63;4.27;;;;;;;;;;5109080;28;20089;-62
2022/04/11 09:32:23;;;;;;;7.30;4.40;;;;;;;;;;5108651;28;20100;-62
2022/04/11 09:34:53;;;;;;;9.83;5.20;;;;;;;;;;5108649;28;20988;-62
2022/04/11 09:37:20;;;;;;;8.43;4.30;;;;;;;;;;5108145;28;20062;-62
2022/04/11 09:39:53;;;;;;;6.23;4.60;;;;;;;;;;5100947;28;20136;-62
2022/04/11 09:42:29;;;;;;;10.35;4.90;;;;;;;;;;5090923;28;20500;-61
2022/04/11 09:45:00;;;;;;;8.63;4.50;;;;;;;;;;5088363;28;20131;-62
2022/04/11 09:47:26;;;;;;;9.30;4.67;;;;;;;;;;5092055;28;20632;-62
2022/04/11 09:49:52;;;;;;;10.13;4.80;;;;;;;;;;5098006;28;20538;-62
2022/04/11 09:52:19;;;;;;;7.97;4.63;;;;;;;;;;5098433;28;20052;-62
2022/04/11 09:54:50;;;;;;;10.70;4.43;;;;;;;;;;5101706;28;20522;-62
2022/04/11 09:57:17;;;;;;;6.47;4.57;;;;;;;;;;5101234;28;20435;-62
2022/04/11 09:59:44;;;;;;;5.50;4.13;;;;;;;;;;5103124;28;20035;-62
2022/04/11 10:02:10;;;;;;;6.37;4.83;;;;;;;;;;5103253;28;20127;-62
2022/04/11 10:04:38;;;;;;;6.67;4.70;;;;;;;;;;5101620;28;20051;-62
2022/04/11 10:07:04;;;;;;;7.57;4.80;;;;;;;;;;5105891;28;20040;-62
2022/04/11 10:09:30;;;;;;;6.97;5.20;;;;;;;;;;5090609;28;20048;-62
2022/04/11 10:11:56;;;;;;;7.87;4.57;;;;;;;;;;5091950;28;20043;-62
2022/04/11 10:14:24;;;;;;;10.00;5.40;;;;;;;;;;5091399;28;20036;-62
2022/04/11 10:16:54;;;;;;;13.17;4.97;;;;;;;;;;5091337;28;20047;-62
2022/04/11 10:19:34;;;;;;;8.33;5.63;;;;;;;;;;5081619;28;20114;-62
2022/04/11 10:22:02;;;;;;;10.73;4.70;;;;;;;;;;5099675;28;20042;-62
2022/04/11 10:24:35;;;;;;;7.50;4.90;;;;;;;;;;5111317;28;20386;-62
2022/04/11 10:27:20;;;;;;;8.10;4.97;;;;;;;;;;5103045;28;20051;-62
2022/04/11 10:29:48;;;;;;;8.77;5.00;;;;;;;;;;5106031;28;20417;-62
2022/04/11 10:32:16;;;;;;;6.93;5.40;;;;;;;;;;5094350;28;20052;-62
2022/04/11 10:34:53;;;;;;;8.17;5.40;;;;;;;;;;5091634;28;20036;-62
2022/04/11 10:37:20;;;;;;;8.40;5.33;;;;;;;;;;5099743;28;20533;-62
2022/04/11 10:39:47;;;;;;;9.17;5.87;;;;;;;;;;5095569;28;20048;-62
2022/04/11 10:42:14;;;;;;;9.93;6.17;;;;;;;;;;5106630;28;20082;-62
2022/04/11 10:44:42;;;;;;;9.67;6.13;;;;;;;;;;5096101;28;20035;-62
2022/04/11 10:47:08;;;;;;;7.00;4.93;;;;;;;;;;5093672;28;20036;-62
2022/04/11 10:49:55;;;;;;;10.57;5.63;;;;;;;;;;5073137;28;20854;-62
2022/04/11 10:52:36;;;;;;;8.67;5.43;;;;;;;;;;5090776;28;20048;-62
2022/04/11 10:55:08;;;;;;;8.37;5.90;;;;;;;;;;5093055;28;20048;-62
2022/04/11 10:57:34;;;;;;;8.63;5.40;;;;;;;;;;5095408;28;20084;-62
2022/04/11 11:00:10;;;;;;;7.97;5.40;;;;;;;;;;5091315;28;20056;-62
2022/04/11 11:02:59;;;;;;;9.27;5.73;;;;;;;;;;5098000;28;20048;-62
2022/04/11 11:05:26;;;;;;;8.83;5.20;;;;;;;;;;5090175;28;20052;-62
2022/04/11 11:08:07;;;;;;;8.40;5.63;;;;;;;;;;5094226;28;20075;-62
2022/04/11 11:10:49;;;;;;;9.47;6.07;;;;;;;;;;5090916;28;20048;-61
2022/04/11 11:13:30;;;;;;;8.87;5.27;;;;;;;;;;5071711;28;20040;-62
2022/04/11 11:16:19;;;;;;;9.13;5.07;;;;;;;;;;5099117;28;20043;-62
2022/04/11 11:18:51;;;;;;;12.10;4.43;;;;;;;;;;5089420;28;20043;-61
2022/04/11 11:21:20;;;;;;;11.82;5.72;;;;;;;;;;5090813;28;20044;-62
2022/04/11 11:24:06;;;;;;;8.07;5.60;;;;;;;;;;5080969;28;20043;-62
2022/04/11 11:26:46;;;;;;;9.60;5.70;;;;;;;;;;5093672;28;20043;-63
2022/04/11 11:29:16;;;;;;;10.53;6.20;;;;;;;;;;5103699;28;20040;-62
2022/04/11 11:31:42;;;;;;;7.53;5.90;;;;;;;;;;5109444;28;20075;-62
2022/04/11 11:34:11;;;;;;;12.30;6.53;;;;;;;;;;5079432;28;20040;-62
2022/04/11 11:36:37;;;;;;;11.90;6.73;;;;;;;;;;5090214;28;20048;-62
2022/04/11 11:39:13;;;;;;;9.60;6.20;;;;;;;;;;5095467;28;20039;-62
2022/04/11 11:41:42;;;;;;;8.60;6.80;;;;;;;;;;5089703;28;20044;-62
2022/04/11 11:44:09;;;;;;;9.50;6.90;;;;;;;;;;5091893;28;20043;-62
2022/04/11 11:46:51;;;;;;;10.70;6.53;;;;;;;;;;5097204;28;20109;-62
2022/04/11 11:49:18;;;;;;;8.43;6.07;;;;;;;;;;5091379;28;20051;-62
2022/04/11 11:51:44;;;;;;;9.57;6.60;;;;;;;;;;5098980;28;20089;-62
2022/04/11 11:54:11;;;;;;;11.93;6.87;;;;;;;;;;5090401;28;20063;-62
2022/04/11 11:56:44;;;;;;;9.87;6.33;;;;;;;;;;5102302;28;20427;-62
2022/04/11 11:59:10;;;;;;;7.27;5.90;;;;;;;;;;5100361;28;20083;-61
2022/04/11 12:01:37;;;;;;;9.23;6.23;;;;;;;;;;5095905;28;20122;-60
2022/04/11 12:04:19;;;;;;;8.77;6.23;;;;;;;;;;5092798;28;20044;-60
2022/04/11 12:06:45;;;;;;;11.67;7.70;;;;;;;;;;5098598;28;20063;-60
2022/04/11 12:09:11;;;;;;;9.70;6.50;;;;;;;;;;5098461;28;20054;-60
2022/04/11 12:11:37;;;;;;;8.57;6.60;;;;;;;;;;5093994;28;20058;-60
2022/04/11 12:14:05;;;;;;;8.23;6.20;;;;;;;;;;5098565;28;20071;-61
2022/04/11 12:16:32;;;;;;;9.27;6.27;;;;;;;;;;5088634;28;20062;-60
2022/04/11 12:18:59;;;;;;;12.10;7.17;;;;;;;;;;5087670;28;20949;-60
2022/04/11 12:21:29;;;;;;;10.07;6.53;;;;;;;;;;5087431;28;20048;-60
2022/04/11 12:23:55;;;;;;;6.93;5.63;;;;;;;;;;5088754;28;20058;-60
2022/04/11 12:26:31;;;;;;;8.23;5.87;;;;;;;;;;5089239;28;20490;-60
2022/04/11 12:28:58;;;;;;;8.32;6.28;;;;;;;;;;5070984;28;20507;-60
2022/04/11 12:31:24;;;;;;;11.48;6.45;;;;;;;;;;5089397;28;20154;-60
2022/04/11 12:33:51;;;;;;;9.32;6.60;;;;;;;;;;5089301;28;20059;-60
2022/04/11 12:36:26;;;;;;;11.98;7.03;;;;;;;;;;5066906;28;20762;-60
2022/04/11 12:38:56;;;;;;;8.07;7.18;;;;;;;;;;5069147;28;20135;-60
2022/04/11 12:41:32;;;;;;;10.02;7.18;;;;;;;;;;5075787;28;20048;-60
2022/04/11 12:43:59;;;;;;;10.73;6.72;;;;;;;;;;5088740;28;20048;-60
2022/04/11 12:46:25;;;;;;;9.88;7.07;;;;;;;;;;5088620;28;20040;-60
2022/04/11 12:48:55;;;;;;;11.20;7.45;;;;;;;;;;5089130;28;20051;-59
2022/04/11 12:51:21;;;;;;;10.35;7.00;;;;;;;;;;5070690;28;20571;-60
2022/04/11 12:53:48;;;;;;;10.02;7.72;;;;;;;;;;5068826;28;20666;-59
2022/04/11 12:56:14;;;;;;;10.80;8.05;;;;;;;;;;5068641;28;20102;-60
2022/04/11 12:58:40;;;;;;;9.73;7.05;;;;;;;;;;5068667;28;20072;-59
2022/04/11 13:01:06;;;;;;;9.20;8.20;;;;;;;;;;5068735;28;20511;-60
2022/04/11 13:03:32;;;;;;;14.27;8.43;;;;;;;;;;5068609;28;20170;-59
2022/04/11 13:05:59;;;;;;;11.30;8.43;;;;;;;;;;5069108;28;20036;-59
2022/04/11 13:08:25;;;;;;;10.20;7.70;;;;;;;;;;5068326;28;20495;-60
2022/04/11 13:10:52;;;;;;;9.18;8.27;;;;;;;;;;5068619;28;20502;-59
2022/04/11 13:13:17;;;;;;;8.23;7.05;;;;;;;;;;5068513;28;20422;-59
2022/04/11 13:18:28;;;;;;;10.35;8.43;;;;;;;;;;5068548;28;20048;-59
2022/04/11 13:20:54;;;;;;;9.68;7.70;;;;;;;;;;5068594;28;20047;-60
2022/04/11 13:23:20;;;;;;;12.10;8.38;;;;;;;;;;5072703;28;20535;-60
2022/04/11 13:25:46;;;;;;;12.02;7.28;;;;;;;;;;5078774;28;20051;-59
2022/04/11 13:28:12;;;;;;;10.00;8.27;;;;;;;;;;5088184;28;20066;-59
2022/04/11 13:30:38;;;;;;;11.77;7.95;;;;;;;;;;5081241;28;20129;-60
2022/04/11 13:33:04;;;;;;;10.25;9.13;;;;;;;;;;5077842;28;20185;-60
2022/04/11 13:35:30;;;;;;;9.73;8.68;;;;;;;;;;5092719;28;20075;-60
2022/04/11 13:37:56;;;;;;;9.77;8.15;;;;;;;;;;5097208;28;20055;-60
2022/04/11 13:40:22;;;;;;;10.93;8.45;;;;;;;;;;5101410;28;20039;-59
2022/04/11 13:42:48;;;;;;;9.45;7.97;;;;;;;;;;5112824;28;20044;-59
2022/04/11 13:45:14;;;;;;;11.38;7.18;;;;;;;;;;5099404;28;20474;-60
2022/04/11 13:47:40;;;;;;;9.55;7.20;;;;;;;;;;5101493;28;20042;-60
2022/04/11 13:50:07;;;;;;;9.88;8.18;;;;;;;;;;5101150;28;20046;-60
2022/04/11 13:52:33;;;;;;;12.98;8.75;;;;;;;;;;5105755;28;20077;-59
2022/04/11 13:54:59;;;;;;;10.52;8.75;;;;;;;;;;5092345;28;20052;-59
2022/04/11 13:57:25;;;;;;;10.30;7.68;;;;;;;;;;5098857;28;20160;-60
2022/04/11 13:59:51;;;;;;;10.52;8.15;;;;;;;;;;5097796;28;20073;-60
2022/04/11 14:02:17;;;;;;;9.15;8.25;;;;;;;;;;5099892;28;20490;-60
2022/04/11 14:04:43;;;;;;;10.55;8.77;;;;;;;;;;5100727;28;20035;-60
2022/04/11 14:07:09;;;;;;;9.55;8.55;;;;;;;;;;5108118;28;20035;-60
2022/04/11 14:09:35;;;;;;;10.52;7.85;;;;;;;;;;5100758;28;20118;-60
2022/04/11 14:12:01;;;;;;;10.02;7.93;;;;;;;;;;5099745;28;20123;-60
2022/04/11 14:14:27;;;;;;;8.60;7.72;;;;;;;;;;5098304;28;20039;-60
2022/04/11 14:16:53;;;;;;;12.00;8.45;;;;;;;;;;5099837;28;20127;-59
2022/04/11 14:19:19;;;;;;;9.57;7.90;;;;;;;;;;5104418;28;20109;-60
2022/04/11 14:21:45;;;;;;;10.05;7.38;;;;;;;;;;5102733;28;20035;-60
2022/04/11 14:24:11;;;;;;;11.75;7.88;;;;;;;;;;5099556;28;20055;-60
2022/04/11 14:26:37;;;;;;;11.55;7.70;;;;;;;;;;5097471;28;20132;-60
2022/04/11 14:29:03;;;;;;;10.55;8.73;;;;;;;;;;5099462;28;20119;-60
2022/04/11 14:31:29;;;;;;;9.00;8.10;;;;;;;;;;5092977;28;20127;-60
2022/04/11 14:33:55;;;;;;;9.13;8.13;;;;;;;;;;5094456;28;20493;-60
2022/04/11 14:36:21;;;;;;;9.27;8.32;;;;;;;;;;5091865;28;20051;-60